Current Conditions
Data
Offline



Pressure
30.06 (inHG) - 1017.92 (mb)
Visibility

10.0 (km) - 6.2 (miles)
Temperature
16  °C
Temperature
11  °C
Dewpoint
72  %
 Humidity
Wind Speed
5.4  m/s
12  mph
19  km/h
10  kts
Wind Direction
N
45°
E
90°
135°
S
180°
225°
W
270°
315°
 220°

South West
Airport Data
URKA
Anapa Vityazevo Airport
Metar :URKA 230400Z AUTO 22005MPS 9999 // 16/11 Q1018 RMK QFE759/1012
Sat 23rd October 07:00 am
Raw Metar Info
Raw METAR is the most common format in the world for the transmission of observational weather data. It is highly standardized through the International Civil Aviation Organization (ICAO), which allows it to be understood throughout most of the world.
API Info
Data Provided by
https://www.checkwx.com/weather/URKA

Aviation Weather providing METAR, TAF, AIRMET, SIGMET and OUTLOOK Weather Reports
© Info
CSS/SVG/PHP scripts were developed by weather34.com for use in the weather34 template © 2015-2021

Guide Info provided by Metar-Wikipedia